createdAt,value
2023-05-05T00:01:05.753Z,101299.28
2023-05-05T00:03:36.154Z,101292.09
2023-05-05T00:06:08.349Z,101296.63
2023-05-05T00:08:37.817Z,101293.06
2023-05-05T00:11:06.833Z,101277.97
2023-05-05T00:13:36.145Z,101288.84
2023-05-05T00:16:05.253Z,101290.41
2023-05-05T00:18:34.460Z,101295.75
2023-05-05T00:21:04.968Z,101289.69
2023-05-05T00:23:34.307Z,101290.41
2023-05-05T00:26:02.981Z,101289.56
2023-05-05T00:28:31.815Z,101288.00
2023-05-05T00:31:00.776Z,101289.84
2023-05-05T00:33:29.782Z,101286.06
2023-05-05T00:35:58.203Z,101286.06
2023-05-05T00:38:27.623Z,101282.06
2023-05-05T00:40:56.298Z,101286.88
2023-05-05T00:43:25.207Z,101288.72
2023-05-05T00:46:03.245Z,101271.97
2023-05-05T00:48:32.306Z,101270.41
2023-05-05T00:51:01.105Z,101273.06
2023-05-05T00:53:29.936Z,101279.00
2023-05-05T00:55:58.443Z,101280.72
2023-05-05T00:58:27.706Z,101280.72
2023-05-05T01:00:56.686Z,101268.31
2023-05-05T01:03:25.579Z,101268.31
2023-05-05T01:06:25.295Z,101266.63
2023-05-05T01:09:28.961Z,101259.88
2023-05-05T01:12:27.825Z,101270.28
2023-05-05T01:15:15.988Z,101260.47
2023-05-05T01:17:57.056Z,101240.47
2023-05-05T01:20:49.924Z,101249.91
2023-05-05T01:23:57.505Z,101247.34
2023-05-05T01:26:51.545Z,101252.69
2023-05-05T01:30:18.032Z,101243.69
2023-05-05T01:32:57.124Z,101245.50
2023-05-05T01:35:56.564Z,101238.03
2023-05-05T01:38:37.301Z,101246.50
2023-05-05T01:41:17.805Z,101250.97
2023-05-05T01:43:50.183Z,101247.47
2023-05-05T01:46:19.336Z,101235.94
2023-05-05T01:48:48.541Z,101244.81
2023-05-05T01:51:18.391Z,101243.84
2023-05-05T01:53:47.547Z,101233.53
2023-05-05T01:56:16.622Z,101242.13
2023-05-05T01:58:45.770Z,101235.13
2023-05-05T02:01:14.368Z,101238.50
2023-05-05T02:03:43.384Z,101234.13
2023-05-05T02:06:11.959Z,101235.25
2023-05-05T02:08:40.920Z,101233.69
2023-05-05T02:11:10.308Z,101237.06
2023-05-05T02:13:39.973Z,101233.81
2023-05-05T02:16:08.629Z,101245.81
2023-05-05T02:18:39.166Z,101247.75
2023-05-05T02:21:08.192Z,101235.38
2023-05-05T02:23:37.037Z,101232.81
2023-05-05T02:26:10.145Z,101230.88
2023-05-05T02:29:08.712Z,101229.19
2023-05-05T02:31:44.373Z,101225.94
2023-05-05T02:34:14.137Z,101225.81
2023-05-05T02:36:42.797Z,101218.88
2023-05-05T02:39:26.295Z,101232.81
2023-05-05T02:41:55.467Z,101227.47
2023-05-05T02:44:28.285Z,101230.03
2023-05-05T02:46:58.085Z,101226.63
2023-05-05T02:49:27.341Z,101218.16
2023-05-05T02:52:01.276Z,101225.09
2023-05-05T02:54:36.215Z,101223.25
2023-05-05T02:57:11.659Z,101220.59
2023-05-05T03:00:17.185Z,101217.47
2023-05-05T03:02:57.954Z,101222.41
2023-05-05T03:05:32.139Z,101216.63
2023-05-05T03:09:06.691Z,101223.25
2023-05-05T03:11:47.157Z,101211.03
2023-05-05T03:14:19.350Z,101219.88
2023-05-05T03:16:50.273Z,101202.44
2023-05-05T03:19:19.464Z,101217.47
2023-05-05T03:21:52.664Z,101215.38
2023-05-05T03:24:21.706Z,101218.16
2023-05-05T03:26:59.322Z,101218.16
2023-05-05T03:29:34.321Z,101212.81
2023-05-05T03:32:04.999Z,101211.16
2023-05-05T03:34:37.506Z,101219.28
2023-05-05T03:37:07.726Z,101209.44
2023-05-05T03:39:36.332Z,101201.44
2023-05-05T03:42:06.209Z,101195.66
2023-05-05T03:44:36.808Z,101194.94
2023-05-05T03:47:06.080Z,101212.00
2023-05-05T03:49:38.384Z,101209.31
2023-05-05T03:52:07.562Z,101208.59
2023-05-05T03:54:36.959Z,101204.25
2023-05-05T03:57:05.827Z,101209.59
2023-05-05T03:59:34.402Z,101210.56
2023-05-05T04:02:03.493Z,101211.53
2023-05-05T04:04:32.521Z,101206.06
2023-05-05T04:07:01.606Z,101205.22
2023-05-05T04:09:30.175Z,101202.56
2023-05-05T04:11:59.445Z,101201.72
2023-05-05T04:14:29.258Z,101203.38
2023-05-05T04:16:58.436Z,101203.50
2023-05-05T04:19:27.026Z,101206.06
2023-05-05T04:21:56.005Z,101209.31
2023-05-05T04:24:25.288Z,101199.88
2023-05-05T04:26:56.976Z,101204.38
2023-05-05T04:29:26.246Z,101201.59
2023-05-05T04:31:56.344Z,101210.69
2023-05-05T04:34:25.194Z,101206.94
2023-05-05T04:36:54.494Z,101206.00
2023-05-05T04:39:23.177Z,101211.78
2023-05-05T04:41:52.476Z,101209.38
2023-05-05T04:44:21.211Z,101209.50
2023-05-05T04:46:50.680Z,101210.63
2023-05-05T04:49:19.348Z,101210.63
2023-05-05T04:51:48.327Z,101206.13
2023-05-05T04:54:16.868Z,101215.13
2023-05-05T04:56:45.816Z,101207.22
2023-05-05T04:59:15.589Z,101204.81
2023-05-05T05:01:44.580Z,101214.53
2023-05-05T05:04:14.195Z,101212.69
2023-05-05T05:06:43.267Z,101218.63
2023-05-05T05:09:12.335Z,101215.97
2023-05-05T05:11:41.245Z,101227.34
2023-05-05T05:14:09.809Z,101219.34
2023-05-05T05:16:39.467Z,101215.00
2023-05-05T05:19:08.171Z,101228.34
2023-05-05T05:21:37.143Z,101215.56
2023-05-05T05:24:05.997Z,101221.88
2023-05-05T05:26:34.943Z,101228.72
2023-05-05T05:29:04.886Z,101218.69
2023-05-05T05:31:34.687Z,101232.16
2023-05-05T05:34:03.994Z,101229.88
2023-05-05T05:36:33.424Z,101233.53
2023-05-05T05:39:02.111Z,101235.34
2023-05-05T05:41:31.224Z,101228.94
2023-05-05T05:44:00.176Z,101227.09
2023-05-05T05:46:30.048Z,101227.81
2023-05-05T05:48:59.942Z,101236.13
2023-05-05T05:51:29.125Z,101235.84
2023-05-05T05:53:59.034Z,101239.94
2023-05-05T05:56:28.431Z,101235.81
2023-05-05T05:58:57.421Z,101230.63
2023-05-05T06:01:26.473Z,101234.22
2023-05-05T06:03:55.521Z,101227.94
2023-05-05T06:06:24.601Z,101230.31
2023-05-05T06:08:53.229Z,101228.84
2023-05-05T06:11:22.526Z,101240.22
2023-05-05T06:13:51.268Z,101229.56
2023-05-05T06:16:20.591Z,101226.59
2023-05-05T06:18:50.784Z,101242.38
2023-05-05T06:21:20.921Z,101237.75
2023-05-05T06:23:49.763Z,101238.47
2023-05-05T06:26:21.751Z,101246.00
2023-05-05T06:28:50.625Z,101240.53
2023-05-05T06:31:19.525Z,101246.72
2023-05-05T06:33:48.101Z,101239.31
2023-05-05T06:36:16.956Z,101245.25
2023-05-05T06:38:45.587Z,101241.78
2023-05-05T06:41:14.527Z,101233.97
2023-05-05T06:43:44.484Z,101235.72
2023-05-05T06:46:16.024Z,101246.13
2023-05-05T06:48:44.677Z,101245.44
2023-05-05T06:51:13.566Z,101245.03
2023-05-05T06:53:42.374Z,101240.88
2023-05-05T06:56:11.763Z,101240.22
2023-05-05T06:58:40.385Z,101248.84
2023-05-05T07:01:09.815Z,101254.16
2023-05-05T07:03:38.485Z,101245.06
2023-05-05T07:06:07.492Z,101251.94
2023-05-05T07:08:36.123Z,101239.06
2023-05-05T07:11:05.005Z,101242.97
2023-05-05T07:13:33.601Z,101246.22
2023-05-05T07:16:02.511Z,101244.91
2023-05-05T07:18:31.004Z,101245.03
2023-05-05T07:20:59.917Z,101243.31
2023-05-05T07:23:28.506Z,101241.59
2023-05-05T07:25:57.409Z,101246.84
2023-05-05T07:28:26.686Z,101252.91
2023-05-05T07:30:55.582Z,101246.47
2023-05-05T07:33:24.088Z,101249.84
2023-05-05T07:35:52.967Z,101248.88
2023-05-05T07:38:21.550Z,101246.25
2023-05-05T07:40:50.476Z,101244.44
2023-05-05T07:43:19.118Z,101246.59
2023-05-05T07:45:48.141Z,101240.78
2023-05-05T07:48:16.901Z,101242.59
2023-05-05T07:50:45.831Z,101236.16
2023-05-05T07:53:15.408Z,101253.09
2023-05-05T07:55:44.413Z,101238.28
2023-05-05T07:58:13.010Z,101239.53
2023-05-05T08:00:44.181Z,101239.53
2023-05-05T08:03:13.269Z,101231.97
2023-05-05T08:06:12.471Z,101236.63
2023-05-05T08:08:40.892Z,101230.50
2023-05-05T08:11:09.773Z,101228.97
2023-05-05T08:13:39.376Z,101218.69
2023-05-05T08:16:08.484Z,101226.16
2023-05-05T08:18:38.569Z,101229.66
2023-05-05T08:21:09.438Z,101226.56
2023-05-05T08:23:38.873Z,101236.00
2023-05-05T08:26:09.385Z,101230.66
2023-05-05T08:28:37.889Z,101224.84
2023-05-05T08:31:07.115Z,101232.78
2023-05-05T08:33:35.712Z,101236.34
2023-05-05T08:36:05.810Z,101229.03
2023-05-05T08:38:34.349Z,101235.50
2023-05-05T08:41:03.933Z,101233.25
2023-05-05T08:43:32.994Z,101225.06
2023-05-05T08:46:01.793Z,101229.91
2023-05-05T08:48:30.219Z,101227.94
2023-05-05T08:51:01.390Z,101225.41
2023-05-05T08:53:47.401Z,101231.72
2023-05-05T08:56:16.411Z,101229.03
2023-05-05T08:58:44.976Z,101235.56
2023-05-05T09:01:14.444Z,101228.78
2023-05-05T09:03:43.645Z,101230.91
2023-05-05T09:06:12.610Z,101239.50
2023-05-05T09:08:41.780Z,101228.53
2023-05-05T09:11:10.736Z,101238.38
2023-05-05T09:13:47.892Z,101232.22
2023-05-05T09:16:16.944Z,101227.44
2023-05-05T09:18:45.773Z,101236.88
2023-05-05T09:21:25.017Z,101226.66
2023-05-05T09:24:12.738Z,101223.56
2023-05-05T09:26:46.927Z,101224.41
2023-05-05T09:29:22.170Z,101224.69
2023-05-05T09:32:11.073Z,101221.03
2023-05-05T09:34:39.702Z,101217.66
2023-05-05T09:37:08.582Z,101211.75
2023-05-05T09:39:37.211Z,101219.91
2023-05-05T09:42:06.336Z,101211.34
2023-05-05T09:44:36.562Z,101207.81
2023-05-05T09:47:09.643Z,101197.81
2023-05-05T09:49:58.154Z,101205.59
2023-05-05T09:52:27.263Z,101205.59
2023-05-05T09:54:57.339Z,101206.41
2023-05-05T09:57:34.070Z,101203.03
2023-05-05T10:00:04.530Z,101199.22
2023-05-05T10:02:38.759Z,101203.63
2023-05-05T10:05:14.956Z,101189.97
2023-05-05T10:07:45.991Z,101186.59
2023-05-05T10:10:18.721Z,101203.06
2023-05-05T10:12:48.075Z,101195.03
2023-05-05T10:15:17.048Z,101189.97
2023-05-05T10:20:21.027Z,101184.22
2023-05-05T10:22:53.665Z,101188.44
2023-05-05T10:25:29.774Z,101186.06
2023-05-05T10:28:01.845Z,101178.72
2023-05-05T10:30:32.387Z,101180.97
2023-05-05T10:33:27.328Z,101170.41
2023-05-05T10:35:56.824Z,101171.09
2023-05-05T10:38:26.798Z,101180.41
2023-05-05T10:40:55.870Z,101170.13
2023-05-05T10:43:25.035Z,101174.66
2023-05-05T10:45:53.972Z,101173.38
2023-05-05T10:48:38.631Z,101160.84
2023-05-05T10:51:35.940Z,101168.59
2023-05-05T10:54:17.461Z,101151.53
2023-05-05T10:56:46.268Z,101151.09
2023-05-05T10:59:37.383Z,101150.13
2023-05-05T11:02:28.536Z,101144.91
2023-05-05T11:05:21.761Z,101140.81
2023-05-05T11:07:51.968Z,101140.97
2023-05-05T11:10:21.380Z,101141.66
2023-05-05T11:13:13.357Z,101131.25
2023-05-05T11:15:42.723Z,101136.59
2023-05-05T11:18:43.603Z,101121.66
2023-05-05T11:21:19.012Z,101121.84
2023-05-05T11:23:51.675Z,101111.81
2023-05-05T11:26:51.495Z,101110.53
2023-05-05T11:29:20.296Z,101111.94
2023-05-05T11:32:18.417Z,101113.50
2023-05-05T11:34:50.941Z,101102.66
2023-05-05T11:37:22.784Z,101113.47
2023-05-05T11:40:04.589Z,101101.22
2023-05-05T11:42:33.721Z,101106.97
2023-05-05T11:45:02.461Z,101099.25
2023-05-05T11:47:31.860Z,101091.25
2023-05-05T11:50:17.116Z,101096.31
2023-05-05T11:52:46.307Z,101087.03
2023-05-05T11:55:20.119Z,101084.63
2023-05-05T11:57:49.449Z,101087.56
2023-05-05T12:00:18.556Z,101083.19
2023-05-05T12:02:47.948Z,101087.03
2023-05-05T12:05:20.442Z,101089.84
2023-05-05T12:07:49.561Z,101082.78
2023-05-05T12:10:23.926Z,101073.78
2023-05-05T12:12:55.392Z,101067.59
2023-05-05T12:15:33.888Z,101067.59
2023-05-05T12:18:03.465Z,101064.22
2023-05-05T12:20:33.361Z,101065.88
2023-05-05T12:23:03.386Z,101060.53
2023-05-05T12:25:39.477Z,101061.38
2023-05-05T12:28:09.023Z,101064.75
2023-05-05T12:30:37.887Z,101059.41
2023-05-05T12:33:07.929Z,101058.41
2023-05-05T12:35:36.702Z,101057.41
2023-05-05T12:38:06.175Z,101058.84
2023-05-05T12:40:54.168Z,101058.56
2023-05-05T12:43:27.312Z,101045.88
2023-05-05T12:46:10.752Z,101046.66
2023-05-05T12:48:41.013Z,101042.63
2023-05-05T12:51:12.749Z,101034.34
2023-05-05T12:53:41.831Z,101039.16
2023-05-05T12:56:39.316Z,101034.81
2023-05-05T12:59:09.571Z,101031.91
2023-05-05T13:01:54.743Z,101025.97
2023-05-05T13:04:24.677Z,101024.78
2023-05-05T13:07:09.280Z,101022.19
2023-05-05T13:09:38.276Z,101020.09
2023-05-05T13:12:09.045Z,101010.78
2023-05-05T13:14:38.683Z,101017.06
2023-05-05T13:17:07.455Z,101013.38
2023-05-05T13:19:42.171Z,101007.41
2023-05-05T13:22:10.874Z,101000.53
2023-05-05T13:24:50.631Z,100994.69
2023-05-05T13:27:21.235Z,101003.56
2023-05-05T13:29:50.332Z,101000.03
2023-05-05T13:32:18.977Z,100993.06
2023-05-05T13:34:47.884Z,100999.25
2023-05-05T13:37:16.494Z,100996.03
2023-05-05T13:39:45.507Z,100997.41
2023-05-05T13:42:14.133Z,100990.66
2023-05-05T13:44:43.073Z,100992.38
2023-05-05T13:47:11.726Z,100983.94
2023-05-05T13:49:40.766Z,100974.66
2023-05-05T13:52:09.425Z,100970.72
2023-05-05T13:54:38.400Z,100968.38
2023-05-05T13:57:08.274Z,100965.84
2023-05-05T13:59:37.313Z,100966.53
2023-05-05T14:02:06.407Z,100961.31
2023-05-05T14:04:35.488Z,100956.34
2023-05-05T14:07:05.024Z,100960.00
2023-05-05T14:09:34.074Z,100947.91
2023-05-05T14:12:03.737Z,100953.28
2023-05-05T14:14:32.703Z,100951.47
2023-05-05T14:17:01.439Z,100948.78
2023-05-05T14:19:31.212Z,100953.59
2023-05-05T14:21:59.906Z,100960.13
2023-05-05T14:24:28.906Z,100948.25
2023-05-05T14:26:57.553Z,100944.53
2023-05-05T14:29:26.887Z,100946.53
2023-05-05T14:31:55.658Z,100945.84
2023-05-05T14:34:24.663Z,100942.88
2023-05-05T14:36:53.371Z,100946.94
2023-05-05T14:39:22.398Z,100936.91
2023-05-05T14:41:51.221Z,100934.38
2023-05-05T14:44:20.313Z,100936.91
2023-05-05T14:46:50.488Z,100939.69
2023-05-05T14:49:20.153Z,100945.03
2023-05-05T14:51:48.904Z,100937.47
2023-05-05T14:54:27.366Z,100936.06
2023-05-05T14:56:57.127Z,100929.69
2023-05-05T14:59:27.759Z,100931.53
2023-05-05T15:01:57.271Z,100931.69
2023-05-05T15:04:26.563Z,100938.22
2023-05-05T15:06:55.244Z,100935.81
2023-05-05T15:09:24.278Z,100937.53
2023-05-05T15:11:53.179Z,100934.53
2023-05-05T15:14:22.346Z,100931.53
2023-05-05T15:16:51.892Z,100934.22
2023-05-05T15:19:21.026Z,100928.72
2023-05-05T15:21:53.375Z,100926.59
2023-05-05T15:24:22.412Z,100922.63
2023-05-05T15:26:51.360Z,100922.09
2023-05-05T15:29:20.362Z,100917.13
2023-05-05T15:31:49.064Z,100921.13
2023-05-05T15:34:18.279Z,100917.75
2023-05-05T15:36:46.851Z,100922.13
2023-05-05T15:39:15.918Z,100911.03
2023-05-05T15:41:44.630Z,100910.72
2023-05-05T15:44:13.726Z,100910.03
2023-05-05T15:46:42.467Z,100900.84
2023-05-05T15:49:11.490Z,100901.84
2023-05-05T15:51:40.162Z,100904.97
2023-05-05T15:54:09.184Z,100894.59
2023-05-05T15:56:37.951Z,100893.72
2023-05-05T15:59:07.701Z,100889.59
2023-05-05T16:01:36.610Z,100883.94
2023-05-05T16:04:05.789Z,100892.66
2023-05-05T16:06:34.582Z,100887.28
2023-05-05T16:09:04.086Z,100886.28
2023-05-05T16:11:32.772Z,100886.00
2023-05-05T16:14:01.828Z,100881.03
2023-05-05T16:16:30.935Z,100889.16
2023-05-05T16:18:59.862Z,100881.78
2023-05-05T16:21:28.655Z,100872.44
2023-05-05T16:23:57.878Z,100884.66
2023-05-05T16:26:26.539Z,100882.00
2023-05-05T16:28:55.625Z,100881.84
2023-05-05T16:31:24.333Z,100879.16
2023-05-05T16:33:53.356Z,100880.16
2023-05-05T16:36:22.139Z,100871.66
2023-05-05T16:38:51.152Z,100877.69
2023-05-05T16:41:19.966Z,100868.13
2023-05-05T16:43:49.245Z,100868.34
2023-05-05T16:46:18.328Z,100860.81
2023-05-05T16:48:47.549Z,100858.78
2023-05-05T16:51:16.188Z,100863.59
2023-05-05T16:53:46.613Z,100862.78
2023-05-05T16:56:16.546Z,100865.59
2023-05-05T16:58:45.589Z,100858.00
2023-05-05T17:01:14.302Z,100861.72
2023-05-05T17:03:43.383Z,100864.38
2023-05-05T17:06:13.253Z,100866.38
2023-05-05T17:08:42.403Z,100847.63
2023-05-05T17:11:11.900Z,100854.34
2023-05-05T17:13:41.114Z,100845.63
2023-05-05T17:16:09.806Z,100850.50
2023-05-05T17:18:38.810Z,100849.94
2023-05-05T17:21:07.633Z,100850.78
2023-05-05T17:23:36.801Z,100844.72
2023-05-05T17:26:05.505Z,100850.78
2023-05-05T17:28:34.536Z,100854.28
2023-05-05T17:31:03.207Z,100850.25
2023-05-05T17:33:32.402Z,100849.94
2023-05-05T17:36:01.032Z,100854.44
2023-05-05T17:38:30.082Z,100858.44
2023-05-05T17:40:58.705Z,100856.28
2023-05-05T17:43:27.766Z,100860.44
2023-05-05T17:45:56.533Z,100860.94
2023-05-05T17:48:26.589Z,100861.06
2023-05-05T17:50:55.349Z,100865.06
2023-05-05T17:53:24.446Z,100875.25
2023-05-05T17:55:53.143Z,100862.88
2023-05-05T17:58:22.517Z,100868.00
2023-05-05T18:00:51.497Z,100868.47
2023-05-05T18:03:20.780Z,100873.84
2023-05-05T18:05:49.559Z,100870.59
2023-05-05T18:08:18.825Z,100877.13
2023-05-05T18:10:47.487Z,100877.41
2023-05-05T18:13:16.504Z,100880.25
2023-05-05T18:15:46.611Z,100876.03
2023-05-05T18:18:15.964Z,100878.88
2023-05-05T18:20:44.608Z,100866.78
2023-05-05T18:23:13.999Z,100879.50
2023-05-05T18:25:42.788Z,100878.13
2023-05-05T18:28:12.494Z,100871.06
2023-05-05T18:30:41.327Z,100869.53
2023-05-05T18:33:10.251Z,100873.06
2023-05-05T18:35:39.013Z,100869.88
2023-05-05T18:38:08.059Z,100872.84
2023-05-05T18:40:36.729Z,100878.50
2023-05-05T18:43:05.771Z,100873.13
2023-05-05T18:45:34.544Z,100879.66
2023-05-05T18:48:03.742Z,100886.84
2023-05-05T18:50:33.727Z,100886.16
2023-05-05T18:53:02.920Z,100885.31
2023-05-05T18:55:31.636Z,100886.31
2023-05-05T18:58:00.713Z,100882.25
2023-05-05T19:00:29.834Z,100889.28
2023-05-05T19:02:58.719Z,100892.66
2023-05-05T19:05:28.216Z,100898.00
2023-05-05T19:07:57.011Z,100897.50
2023-05-05T19:10:26.354Z,100894.13
2023-05-05T19:12:55.831Z,100894.81
2023-05-05T19:15:25.368Z,100889.97
2023-05-05T19:17:55.242Z,100891.66
2023-05-05T19:20:25.823Z,100891.94
2023-05-05T19:22:56.244Z,100900.16
2023-05-05T19:25:25.319Z,100897.50
2023-05-05T19:27:54.858Z,100899.28
2023-05-05T19:30:25.266Z,100896.81
2023-05-05T19:32:55.183Z,100908.50
2023-05-05T19:35:25.688Z,100909.31
2023-05-05T19:37:56.830Z,100907.66
2023-05-05T19:40:27.128Z,100903.28
2023-05-05T19:42:57.258Z,100909.31
2023-05-05T19:45:26.528Z,100900.59
2023-05-05T19:47:57.716Z,100901.28
2023-05-05T19:50:28.188Z,100903.13
2023-05-05T19:52:58.355Z,100898.06
2023-05-05T19:55:27.680Z,100899.75
2023-05-05T19:57:56.366Z,100904.28
2023-05-05T20:00:25.367Z,100904.44
2023-05-05T20:02:54.093Z,100910.63
2023-05-05T20:05:23.305Z,100913.16
2023-05-05T20:07:52.153Z,100911.63
2023-05-05T20:10:21.266Z,100909.94
2023-05-05T20:12:50.504Z,100910.94
2023-05-05T20:15:20.575Z,100917.28
2023-05-05T20:17:49.326Z,100913.63
2023-05-05T20:20:20.715Z,100918.28
2023-05-05T20:22:49.735Z,100918.09
2023-05-05T20:25:19.065Z,100920.28
2023-05-05T20:27:47.817Z,100922.94
2023-05-05T20:30:16.919Z,100917.47
2023-05-05T20:32:45.790Z,100918.47
2023-05-05T20:35:15.094Z,100922.13
2023-05-05T20:37:45.302Z,100915.13
2023-05-05T20:40:14.639Z,100919.31
2023-05-05T20:42:43.437Z,100917.09
2023-05-05T20:45:12.755Z,100913.03
2023-05-05T20:47:41.522Z,100919.38
2023-05-05T20:50:11.825Z,100920.16
2023-05-05T20:52:40.799Z,100909.69
2023-05-05T20:55:10.033Z,100915.44
2023-05-05T20:57:38.868Z,100906.28
2023-05-05T21:00:09.288Z,100902.59
2023-05-05T21:02:38.447Z,100903.28
2023-05-05T21:05:08.439Z,100907.66
2023-05-05T21:07:37.285Z,100911.31
2023-05-05T21:10:07.180Z,100906.81
2023-05-05T21:12:36.210Z,100907.66
2023-05-05T21:15:05.763Z,100904.13
2023-05-05T21:17:34.828Z,100913.00
2023-05-05T21:20:04.166Z,100907.66
2023-05-05T21:22:32.859Z,100919.19
2023-05-05T21:25:19.194Z,100913.00
2023-05-05T21:27:48.687Z,100922.72
2023-05-05T21:30:18.000Z,100924.56
2023-05-05T21:32:46.975Z,100920.22
2023-05-05T21:35:16.172Z,100927.38
2023-05-05T21:37:44.912Z,100932.72
2023-05-05T21:40:16.523Z,100937.09
2023-05-05T21:42:45.198Z,100933.59
2023-05-05T21:45:14.341Z,100919.34
2023-05-05T21:47:43.205Z,100916.66
2023-05-05T21:50:13.109Z,100921.03
2023-05-05T21:52:41.999Z,100911.31
2023-05-05T21:55:11.200Z,100916.66
2023-05-05T21:57:39.890Z,100911.31
2023-05-05T22:00:10.086Z,100911.31
2023-05-05T22:02:41.715Z,100911.31
2023-05-05T22:05:10.990Z,100905.13
2023-05-05T22:07:40.693Z,100905.94
2023-05-05T22:10:10.356Z,100900.59
2023-05-05T22:12:39.237Z,100896.25
2023-05-05T22:15:09.126Z,100900.59
2023-05-05T22:17:38.131Z,100900.59
2023-05-05T22:20:09.387Z,100898.94
2023-05-05T22:22:38.470Z,100904.28
2023-05-05T22:25:08.216Z,100906.09
2023-05-05T22:27:37.201Z,100903.41
2023-05-05T22:30:06.833Z,100895.38
2023-05-05T22:32:35.722Z,100903.41
2023-05-05T22:35:05.504Z,100889.53
2023-05-05T22:37:34.559Z,100893.56
2023-05-05T22:40:03.856Z,100903.41
2023-05-05T22:42:32.671Z,100897.22
2023-05-05T22:45:01.768Z,100899.91
2023-05-05T22:47:31.250Z,100899.75
2023-05-05T22:50:00.460Z,100903.41
2023-05-05T22:52:29.275Z,100905.25
2023-05-05T22:54:58.665Z,100897.22
2023-05-05T22:57:27.429Z,100905.25
2023-05-05T22:59:56.493Z,100894.69
2023-05-05T23:02:26.839Z,100893.72
2023-05-05T23:04:56.090Z,100892.88
2023-05-05T23:07:24.845Z,100899.06
2023-05-05T23:09:54.015Z,100901.91
2023-05-05T23:12:22.619Z,100902.72
2023-05-05T23:14:51.737Z,100898.38
2023-05-05T23:17:20.809Z,100895.56
2023-05-05T23:19:50.186Z,100888.50
2023-05-05T23:22:18.969Z,100899.22
2023-05-05T23:24:48.156Z,100895.84
2023-05-05T23:27:16.878Z,100887.69
2023-05-05T23:29:45.842Z,100896.69
2023-05-05T23:32:14.645Z,100894.00
2023-05-05T23:34:43.604Z,100888.84
2023-05-05T23:37:14.667Z,100896.69
2023-05-05T23:39:43.768Z,100895.03
2023-05-05T23:42:12.502Z,100894.19
2023-05-05T23:44:41.588Z,100888.84
2023-05-05T23:47:10.425Z,100882.63
2023-05-05T23:49:39.764Z,100889.81
2023-05-05T23:52:08.463Z,100880.78
2023-05-05T23:54:37.456Z,100877.25
2023-05-05T23:57:06.236Z,100873.75
2023-05-05T23:59:35.377Z,100865.72
